createdAt,value
2018-12-26T00:00:59.595Z,71.48
2018-12-26T00:03:27.758Z,71.67
2018-12-26T00:05:55.215Z,71.97
2018-12-26T00:08:24.815Z,71.81
2018-12-26T00:10:52.323Z,71.52
2018-12-26T00:13:19.991Z,71.68
2018-12-26T00:15:47.732Z,71.69
2018-12-26T00:18:15.232Z,71.82
2018-12-26T00:20:42.747Z,72.30
2018-12-26T00:23:11.217Z,72.63
2018-12-26T00:25:38.742Z,72.77
2018-12-26T00:28:06.240Z,72.77
2018-12-26T00:30:33.932Z,72.36
2018-12-26T00:35:34.130Z,72.12
2018-12-26T00:38:01.725Z,71.93
2018-12-26T00:40:29.584Z,71.99
2018-12-26T00:42:57.120Z,71.93
2018-12-26T00:45:24.636Z,72.00
2018-12-26T00:47:53.024Z,72.03
2018-12-26T00:50:20.532Z,72.13
2018-12-26T00:52:48.210Z,72.20
2018-12-26T00:55:15.795Z,71.96
2018-12-26T00:57:43.316Z,71.64
2018-12-26T01:00:10.968Z,71.52
2018-12-26T01:02:39.351Z,71.41
2018-12-26T01:05:06.935Z,71.29
2018-12-26T01:07:35.370Z,70.99
2018-12-26T01:10:03.206Z,70.42
2018-12-26T01:12:30.783Z,70.12
2018-12-26T01:14:58.266Z,70.09
2018-12-26T01:17:25.833Z,70.07
2018-12-26T01:19:53.414Z,69.92
2018-12-26T01:22:21.359Z,69.94
2018-12-26T01:24:48.926Z,70.31
2018-12-26T01:27:16.608Z,70.62
2018-12-26T01:29:44.198Z,70.60
2018-12-26T01:32:11.829Z,70.61
2018-12-26T01:34:40.735Z,70.14
2018-12-26T01:37:08.318Z,69.96
2018-12-26T01:39:35.835Z,70.02
2018-12-26T01:42:03.467Z,69.67
2018-12-26T01:44:30.962Z,69.59
2018-12-26T01:46:58.556Z,69.15
2018-12-26T01:49:26.218Z,69.40
2018-12-26T01:51:53.738Z,69.53
2018-12-26T01:54:21.250Z,69.28
2018-12-26T01:56:48.763Z,69.06
2018-12-26T01:59:16.250Z,68.93
2018-12-26T02:01:43.859Z,69.35
2018-12-26T02:04:11.643Z,69.46
2018-12-26T02:06:39.244Z,68.77
2018-12-26T02:09:06.819Z,68.92
2018-12-26T02:11:34.415Z,69.26
2018-12-26T02:14:02.217Z,69.15
2018-12-26T02:16:29.713Z,68.89
2018-12-26T02:18:57.225Z,68.96
2018-12-26T02:21:24.816Z,69.13
2018-12-26T02:26:26.115Z,69.03
2018-12-26T02:28:53.687Z,68.78
2018-12-26T02:31:21.249Z,69.00
2018-12-26T02:33:48.861Z,68.81
2018-12-26T02:36:17.217Z,69.41
2018-12-26T02:38:44.839Z,69.79
2018-12-26T02:41:12.495Z,70.07
2018-12-26T02:43:40.517Z,70.19
2018-12-26T02:46:08.413Z,70.35
2018-12-26T02:48:35.991Z,70.51
2018-12-26T02:51:03.991Z,70.80
2018-12-26T02:53:32.652Z,71.24
2018-12-26T02:56:00.321Z,71.27
2018-12-26T02:58:28.715Z,71.26
2018-12-26T03:00:56.769Z,70.88
2018-12-26T03:03:24.944Z,70.93
2018-12-26T03:05:52.692Z,70.64
2018-12-26T03:08:20.629Z,70.61
2018-12-26T03:10:48.983Z,70.92
2018-12-26T03:13:16.631Z,70.53
2018-12-26T03:15:44.364Z,70.35
2018-12-26T03:18:11.925Z,70.58
2018-12-26T03:20:39.764Z,70.12
2018-12-26T03:23:07.350Z,70.53
2018-12-26T03:25:35.223Z,70.51
2018-12-26T03:28:03.063Z,70.42
2018-12-26T03:30:30.650Z,70.61
2018-12-26T03:32:58.294Z,70.37
2018-12-26T03:35:25.993Z,69.97
2018-12-26T03:37:53.543Z,70.24
2018-12-26T03:40:21.103Z,70.52
2018-12-26T03:42:48.796Z,70.24
2018-12-26T03:45:16.542Z,69.92
2018-12-26T03:47:44.890Z,69.83
2018-12-26T03:50:12.497Z,69.61
2018-12-26T03:52:40.057Z,69.54
2018-12-26T03:55:07.560Z,69.19
2018-12-26T03:57:35.145Z,69.50
2018-12-26T04:00:02.784Z,69.74
2018-12-26T04:02:30.253Z,70.47
2018-12-26T04:04:57.767Z,70.74
2018-12-26T04:07:25.360Z,70.90
2018-12-26T04:09:52.872Z,70.86
2018-12-26T04:12:21.147Z,70.39
2018-12-26T04:14:48.687Z,70.18
2018-12-26T04:17:16.223Z,69.97
2018-12-26T04:19:43.677Z,70.25
2018-12-26T04:22:11.212Z,70.30
2018-12-26T04:24:38.901Z,70.71
2018-12-26T04:27:15.306Z,70.85
2018-12-26T04:29:34.739Z,70.67
2018-12-26T04:32:02.444Z,70.37
2018-12-26T04:34:31.703Z,70.24
2018-12-26T04:36:59.187Z,69.97
2018-12-26T04:39:26.738Z,69.90
2018-12-26T04:41:54.346Z,69.74
2018-12-26T04:44:21.931Z,70.00
2018-12-26T04:46:49.608Z,70.17
2018-12-26T04:49:17.287Z,70.30
2018-12-26T04:51:45.013Z,70.44
2018-12-26T04:54:12.662Z,70.84
2018-12-26T04:56:40.180Z,70.98
2018-12-26T04:59:07.846Z,71.00
2018-12-26T05:01:35.403Z,70.78
2018-12-26T05:04:03.530Z,71.49
2018-12-26T05:06:31.505Z,71.51
2018-12-26T05:08:59.090Z,71.91
2018-12-26T05:11:26.621Z,71.98
2018-12-26T05:13:55.152Z,72.32
2018-12-26T05:16:23.852Z,72.28
2018-12-26T05:18:51.595Z,71.90
2018-12-26T05:21:19.152Z,71.97
2018-12-26T05:23:47.613Z,72.08
2018-12-26T05:26:16.150Z,71.69
2018-12-26T05:28:43.638Z,71.50
2018-12-26T05:31:11.299Z,71.37
2018-12-26T05:33:38.823Z,71.50
2018-12-26T05:36:06.439Z,71.26
2018-12-26T05:38:34.043Z,71.34
2018-12-26T05:41:01.588Z,71.08
2018-12-26T05:43:29.165Z,71.19
2018-12-26T05:45:56.772Z,70.91
2018-12-26T05:48:24.312Z,70.55
2018-12-26T05:50:51.839Z,70.41
2018-12-26T05:53:19.540Z,70.39
2018-12-26T05:55:47.117Z,69.99
2018-12-26T05:58:14.643Z,70.37
2018-12-26T06:00:42.377Z,70.53
2018-12-26T06:03:10.310Z,70.62
2018-12-26T06:05:37.817Z,70.60
2018-12-26T06:08:05.405Z,70.44
2018-12-26T06:10:33.057Z,70.21
2018-12-26T06:13:00.582Z,69.98
2018-12-26T06:15:28.103Z,69.64
2018-12-26T06:17:55.622Z,69.73
2018-12-26T06:20:23.098Z,69.72
2018-12-26T06:22:50.582Z,69.63
2018-12-26T06:25:18.136Z,69.90
2018-12-26T06:27:51.403Z,69.63
2018-12-26T06:30:13.647Z,69.42
2018-12-26T06:32:41.113Z,69.46
2018-12-26T06:35:08.587Z,69.84
2018-12-26T06:37:36.953Z,69.88
2018-12-26T06:40:04.495Z,70.43
2018-12-26T06:42:31.953Z,70.43
2018-12-26T06:44:59.531Z,70.51
2018-12-26T06:47:27.692Z,70.06
2018-12-26T06:49:55.254Z,70.22
2018-12-26T06:52:22.927Z,69.82
2018-12-26T06:54:50.605Z,69.55
2018-12-26T06:57:18.274Z,69.79
2018-12-26T06:59:46.018Z,69.69
2018-12-26T07:02:13.547Z,70.03
2018-12-26T07:04:41.204Z,69.64
2018-12-26T07:07:09.084Z,69.30
2018-12-26T07:09:36.564Z,68.95
2018-12-26T07:12:04.725Z,68.59
2018-12-26T07:14:32.171Z,68.21
2018-12-26T07:16:59.699Z,68.36
2018-12-26T07:19:27.174Z,68.70
2018-12-26T07:21:54.851Z,69.01
2018-12-26T07:24:22.386Z,68.97
2018-12-26T07:26:49.883Z,68.90
2018-12-26T07:29:17.535Z,68.89
2018-12-26T07:31:45.089Z,68.50
2018-12-26T07:34:12.771Z,68.39
2018-12-26T07:36:40.797Z,68.38
2018-12-26T07:39:08.549Z,68.07
2018-12-26T07:41:36.112Z,67.70
2018-12-26T07:44:03.907Z,67.75
2018-12-26T07:46:31.417Z,67.65
2018-12-26T07:48:58.954Z,67.99
2018-12-26T07:51:26.519Z,67.88
2018-12-26T07:53:54.398Z,67.87
2018-12-26T07:56:21.973Z,67.38
2018-12-26T07:58:49.642Z,67.52
2018-12-26T08:01:17.239Z,67.52
2018-12-26T08:03:46.258Z,67.39
2018-12-26T08:06:13.938Z,67.50
2018-12-26T08:08:41.514Z,67.27
2018-12-26T08:11:09.077Z,67.10
2018-12-26T08:13:36.690Z,66.82
2018-12-26T08:16:04.250Z,66.67
2018-12-26T08:18:31.775Z,66.77
2018-12-26T08:20:59.306Z,66.55
2018-12-26T08:23:26.852Z,66.35
2018-12-26T08:25:54.500Z,66.83
2018-12-26T08:28:26.500Z,66.84
2018-12-26T08:30:49.773Z,66.49
2018-12-26T08:33:17.299Z,66.45
2018-12-26T08:35:45.362Z,67.02
2018-12-26T08:38:12.882Z,67.13
2018-12-26T08:40:40.423Z,66.82
2018-12-26T08:43:08.964Z,66.77
2018-12-26T08:45:37.225Z,66.92
2018-12-26T08:48:05.366Z,66.43
2018-12-26T08:50:33.031Z,66.34
2018-12-26T08:53:00.485Z,66.16
2018-12-26T08:55:28.079Z,66.14
2018-12-26T08:57:55.592Z,66.46
2018-12-26T09:00:23.780Z,66.43
2018-12-26T09:02:52.143Z,66.34
2018-12-26T09:05:20.481Z,65.91
2018-12-26T09:07:48.039Z,65.71
2018-12-26T09:10:16.518Z,65.51
2018-12-26T09:12:44.026Z,65.61
2018-12-26T09:15:11.556Z,65.39
2018-12-26T09:17:39.291Z,65.63
2018-12-26T09:20:07.373Z,65.89
2018-12-26T09:22:34.755Z,66.14
2018-12-26T09:25:02.245Z,66.14
2018-12-26T09:27:29.707Z,66.10
2018-12-26T09:29:57.315Z,66.40
2018-12-26T09:32:24.970Z,65.99
2018-12-26T09:34:52.606Z,65.65
2018-12-26T09:37:20.179Z,65.44
2018-12-26T09:39:48.736Z,65.32
2018-12-26T09:42:16.278Z,64.72
2018-12-26T09:44:44.551Z,64.39
2018-12-26T09:47:13.351Z,64.08
2018-12-26T09:49:41.006Z,64.37
2018-12-26T09:52:08.866Z,64.68
2018-12-26T09:54:36.604Z,64.58
2018-12-26T09:57:04.273Z,64.35
2018-12-26T09:59:31.751Z,64.07
2018-12-26T10:01:59.430Z,63.72
2018-12-26T10:04:27.145Z,63.49
2018-12-26T10:06:55.477Z,63.95
2018-12-26T10:09:25.030Z,64.76
2018-12-26T10:11:53.913Z,64.59
2018-12-26T10:14:21.961Z,64.51
2018-12-26T10:16:49.587Z,64.24
2018-12-26T10:19:17.240Z,64.25
2018-12-26T10:21:46.322Z,64.42
2018-12-26T10:24:14.068Z,64.65
2018-12-26T10:26:41.757Z,64.12
2018-12-26T10:29:09.721Z,63.67
2018-12-26T10:31:38.298Z,63.58
2018-12-26T10:34:06.145Z,63.43
2018-12-26T10:36:36.517Z,63.13
2018-12-26T10:39:05.534Z,63.32
2018-12-26T10:41:34.583Z,63.44
2018-12-26T10:44:04.442Z,63.60
2018-12-26T10:46:34.168Z,63.19
2018-12-26T10:49:01.853Z,62.76
2018-12-26T10:51:30.369Z,62.47
2018-12-26T10:53:58.812Z,62.16
2018-12-26T10:56:26.417Z,61.62
2018-12-26T10:58:54.830Z,61.63
2018-12-26T11:01:22.345Z,62.03
2018-12-26T11:03:50.001Z,61.91
2018-12-26T11:06:18.288Z,61.64
2018-12-26T11:08:45.857Z,61.47
2018-12-26T11:11:13.313Z,61.19
2018-12-26T11:13:40.901Z,60.89
2018-12-26T11:16:08.521Z,60.68
2018-12-26T11:18:36.287Z,60.61
2018-12-26T11:21:04.067Z,60.62
2018-12-26T11:23:31.741Z,60.29
2018-12-26T11:25:59.486Z,60.64
2018-12-26T11:28:27.113Z,60.71
2018-12-26T11:30:55.117Z,61.09
2018-12-26T11:33:22.775Z,61.30
2018-12-26T11:35:50.594Z,61.73
2018-12-26T11:38:18.875Z,62.12
2018-12-26T11:40:47.247Z,61.89
2018-12-26T11:43:14.965Z,61.96
2018-12-26T11:45:43.156Z,61.73
2018-12-26T11:48:13.864Z,61.54
2018-12-26T11:50:42.191Z,62.71
2018-12-26T11:53:09.736Z,63.26
2018-12-26T11:55:37.222Z,63.27
2018-12-26T11:58:04.837Z,63.20
2018-12-26T12:00:33.258Z,63.17
2018-12-26T12:03:01.348Z,62.93
2018-12-26T12:05:28.907Z,62.89
2018-12-26T12:07:56.388Z,63.23
2018-12-26T12:10:24.213Z,63.59
2018-12-26T12:12:51.676Z,63.51
2018-12-26T12:15:19.170Z,63.01
2018-12-26T12:17:46.836Z,61.94
2018-12-26T12:20:14.600Z,61.65
2018-12-26T12:22:42.064Z,61.10
2018-12-26T12:25:10.025Z,58.50
2018-12-26T12:27:37.529Z,53.96
2018-12-26T12:30:05.341Z,51.53
2018-12-26T12:32:34.642Z,51.18
2018-12-26T12:35:02.193Z,52.67
2018-12-26T12:37:29.787Z,53.35
2018-12-26T12:39:57.927Z,52.00
2018-12-26T12:42:26.593Z,53.03
2018-12-26T12:44:54.102Z,53.53
2018-12-26T12:49:55.419Z,54.86
2018-12-26T12:52:22.890Z,55.08
2018-12-26T12:54:50.520Z,55.78
2018-12-26T12:57:18.056Z,54.94
2018-12-26T12:59:45.646Z,52.18
2018-12-26T13:02:13.162Z,51.35
2018-12-26T13:04:40.988Z,50.72
2018-12-26T13:07:07.993Z,48.46
2018-12-26T13:09:35.106Z,46.32
2018-12-26T13:12:02.157Z,43.66
2018-12-26T13:14:29.169Z,42.15
2018-12-26T13:16:56.233Z,44.06
2018-12-26T13:19:23.345Z,42.82
2018-12-26T13:21:50.394Z,40.84
2018-12-26T13:24:17.454Z,39.67
2018-12-26T13:26:44.509Z,40.33
2018-12-26T13:29:11.904Z,40.32
2018-12-26T13:31:38.981Z,40.13
2018-12-26T13:34:05.978Z,43.72
2018-12-26T13:36:33.488Z,47.38
2018-12-26T13:39:00.597Z,49.03
2018-12-26T13:41:27.581Z,50.59
2018-12-26T13:43:57.327Z,51.32
2018-12-26T13:46:24.572Z,52.25
2018-12-26T13:48:52.701Z,52.89
2018-12-26T13:51:20.675Z,53.56
2018-12-26T13:53:47.788Z,54.66
2018-12-26T13:56:15.647Z,56.05
2018-12-26T13:58:43.557Z,56.07
2018-12-26T14:01:11.854Z,56.08
2018-12-26T14:03:39.410Z,56.45
2018-12-26T14:06:07.532Z,57.10
2018-12-26T14:08:35.356Z,56.92
2018-12-26T14:11:02.853Z,57.67
2018-12-26T14:13:31.571Z,57.94
2018-12-26T14:15:59.129Z,58.16
2018-12-26T14:18:27.439Z,58.71
2018-12-26T14:20:54.931Z,59.29
2018-12-26T14:23:22.469Z,58.90
2018-12-26T14:25:50.165Z,59.01
2018-12-26T14:28:17.789Z,59.19
2018-12-26T14:30:45.376Z,59.43
2018-12-26T14:33:13.509Z,59.24
2018-12-26T14:35:42.070Z,59.47
2018-12-26T14:38:10.054Z,59.33
2018-12-26T14:40:37.523Z,59.09
2018-12-26T14:43:07.905Z,59.73
2018-12-26T14:45:35.075Z,61.19
2018-12-26T14:48:02.156Z,61.99
2018-12-26T14:50:29.266Z,61.96
2018-12-26T14:52:57.199Z,61.80
2018-12-26T14:55:24.560Z,62.01
2018-12-26T14:57:51.599Z,62.37
2018-12-26T15:00:20.365Z,62.92
2018-12-26T15:02:47.516Z,62.76
2018-12-26T15:05:14.725Z,62.50
2018-12-26T15:07:41.871Z,62.63
2018-12-26T15:10:09.211Z,63.52
2018-12-26T15:12:38.243Z,63.09
2018-12-26T15:15:05.494Z,63.09
2018-12-26T15:17:32.620Z,63.98
2018-12-26T15:19:59.696Z,64.77
2018-12-26T15:22:26.966Z,64.63
2018-12-26T15:24:53.978Z,65.29
2018-12-26T15:27:21.298Z,65.75
2018-12-26T15:29:48.398Z,65.80
2018-12-26T15:32:15.541Z,65.98
2018-12-26T15:34:42.540Z,66.46
2018-12-26T15:37:10.936Z,66.47
2018-12-26T15:39:38.294Z,66.57
2018-12-26T15:42:06.685Z,66.64
2018-12-26T15:44:34.565Z,66.61
2018-12-26T15:47:02.223Z,66.96
2018-12-26T15:49:29.777Z,67.73
2018-12-26T15:51:57.305Z,67.98
2018-12-26T15:54:24.756Z,68.39
2018-12-26T15:56:53.008Z,68.69
2018-12-26T15:59:20.481Z,68.88
2018-12-26T16:01:48.023Z,68.95
2018-12-26T16:04:15.603Z,69.10
2018-12-26T16:06:43.184Z,69.22
2018-12-26T16:09:10.696Z,69.24
2018-12-26T16:11:38.330Z,69.18
2018-12-26T16:14:05.812Z,69.19
2018-12-26T16:16:33.893Z,69.12
2018-12-26T16:19:01.785Z,69.06
2018-12-26T16:21:29.364Z,69.11
2018-12-26T16:23:56.889Z,69.18
2018-12-26T16:26:24.372Z,69.32
2018-12-26T16:28:52.747Z,69.49
2018-12-26T16:31:20.359Z,69.54
2018-12-26T16:33:48.325Z,69.36
2018-12-26T16:36:15.934Z,69.68
2018-12-26T16:38:43.456Z,69.91
2018-12-26T16:41:11.002Z,69.73
2018-12-26T16:43:38.514Z,69.67
2018-12-26T16:46:05.977Z,69.55
2018-12-26T16:48:33.530Z,69.45
2018-12-26T16:51:01.096Z,69.49
2018-12-26T16:53:28.636Z,69.38
2018-12-26T16:55:56.262Z,69.29
2018-12-26T16:58:23.801Z,69.53
2018-12-26T17:00:55.115Z,69.54
2018-12-26T17:03:18.965Z,69.39
2018-12-26T17:05:46.602Z,69.34
2018-12-26T17:08:14.265Z,68.99
2018-12-26T17:10:41.755Z,68.59
2018-12-26T17:13:09.259Z,68.73
2018-12-26T17:15:38.165Z,69.08
2018-12-26T17:18:05.799Z,68.72
2018-12-26T17:20:33.381Z,68.66
2018-12-26T17:23:03.034Z,68.80
2018-12-26T17:25:30.663Z,68.95
2018-12-26T17:27:58.246Z,69.04
2018-12-26T17:30:25.878Z,68.79
2018-12-26T17:33:00.500Z,68.56
2018-12-26T17:35:22.765Z,68.51
2018-12-26T17:37:51.295Z,68.73
2018-12-26T17:40:18.751Z,69.46
2018-12-26T17:42:46.326Z,69.34
2018-12-26T17:45:15.274Z,69.01
2018-12-26T17:47:42.905Z,68.90
2018-12-26T17:50:22.037Z,68.73
2018-12-26T17:52:49.581Z,69.20
2018-12-26T17:55:18.898Z,69.16
2018-12-26T17:57:46.460Z,69.05
2018-12-26T18:00:14.018Z,69.03
2018-12-26T18:02:42.369Z,68.79
2018-12-26T18:05:09.888Z,69.03
2018-12-26T18:07:37.721Z,69.31
2018-12-26T18:10:05.644Z,69.36
2018-12-26T18:12:34.474Z,69.43
2018-12-26T18:15:02.248Z,69.41
2018-12-26T18:17:29.884Z,69.42
2018-12-26T18:19:58.198Z,69.49
2018-12-26T18:22:30.712Z,69.65
2018-12-26T18:25:00.322Z,69.47
2018-12-26T18:27:27.306Z,69.51
2018-12-26T18:29:55.095Z,69.36
2018-12-26T18:32:23.844Z,69.64
2018-12-26T18:34:51.408Z,69.93
2018-12-26T18:37:19.024Z,69.98
2018-12-26T18:39:46.654Z,69.76
2018-12-26T18:42:14.314Z,70.05
2018-12-26T18:44:41.880Z,69.81
2018-12-26T18:47:09.634Z,69.59
2018-12-26T18:49:38.225Z,69.61
2018-12-26T18:52:05.991Z,69.31
2018-12-26T18:54:33.700Z,69.31
2018-12-26T18:57:01.482Z,69.61
2018-12-26T18:59:29.014Z,69.65
2018-12-26T19:01:56.515Z,69.49
2018-12-26T19:04:24.155Z,69.66
2018-12-26T19:06:51.889Z,69.65
2018-12-26T19:09:19.342Z,69.72
2018-12-26T19:11:46.808Z,69.67
2018-12-26T19:14:15.300Z,69.61
2018-12-26T19:16:42.806Z,69.42
2018-12-26T19:19:10.309Z,69.39
2018-12-26T19:21:38.848Z,69.71
2018-12-26T19:24:06.321Z,69.75
2018-12-26T19:26:33.798Z,70.10
2018-12-26T19:29:01.946Z,70.38
2018-12-26T19:31:29.735Z,70.21
2018-12-26T19:33:57.265Z,70.35
2018-12-26T19:36:26.425Z,70.87
2018-12-26T19:38:54.112Z,70.54
2018-12-26T19:41:21.663Z,70.60
2018-12-26T19:43:49.307Z,70.56
2018-12-26T19:46:17.877Z,70.65
2018-12-26T19:48:45.516Z,70.43
2018-12-26T19:51:13.156Z,70.20
2018-12-26T19:53:40.918Z,70.15
2018-12-26T19:56:09.358Z,70.48
2018-12-26T19:58:36.844Z,70.27
2018-12-26T20:01:04.749Z,70.25
2018-12-26T20:03:32.425Z,70.70
2018-12-26T20:06:00.046Z,71.05
2018-12-26T20:08:27.686Z,71.08
2018-12-26T20:10:56.439Z,71.19
2018-12-26T20:13:22.302Z,71.08
2018-12-26T20:15:50.135Z,71.05
2018-12-26T20:18:18.864Z,71.24
2018-12-26T20:20:46.426Z,71.38
2018-12-26T20:23:14.176Z,71.50
2018-12-26T20:25:41.751Z,71.46
2018-12-26T20:28:09.367Z,71.43
2018-12-26T20:30:36.965Z,71.20
2018-12-26T20:33:04.566Z,71.39
2018-12-26T20:35:32.163Z,71.58
2018-12-26T20:37:59.689Z,71.75
2018-12-26T20:40:27.253Z,71.72
2018-12-26T20:42:54.809Z,71.51
2018-12-26T20:45:25.124Z,71.36
2018-12-26T20:47:53.644Z,71.19
2018-12-26T20:50:21.165Z,71.63
2018-12-26T20:52:48.763Z,71.86
2018-12-26T20:55:16.361Z,71.84
2018-12-26T20:57:43.994Z,71.99
2018-12-26T21:00:11.702Z,72.39
2018-12-26T21:02:39.195Z,73.19
2018-12-26T21:05:07.118Z,73.92
2018-12-26T21:07:34.698Z,74.27
2018-12-26T21:10:02.211Z,74.70
2018-12-26T21:12:29.660Z,74.67
2018-12-26T21:14:57.139Z,74.43
2018-12-26T21:17:24.672Z,74.25
2018-12-26T21:19:52.249Z,74.47
2018-12-26T21:22:19.857Z,74.65
2018-12-26T21:24:51.135Z,74.63
2018-12-26T21:27:18.923Z,74.62
2018-12-26T21:29:46.533Z,74.22
2018-12-26T21:32:15.365Z,74.22
2018-12-26T21:34:43.056Z,73.88
2018-12-26T21:37:10.572Z,73.92
2018-12-26T21:39:38.333Z,74.14
2018-12-26T21:42:05.832Z,74.37
2018-12-26T21:44:34.745Z,74.55
2018-12-26T21:47:02.472Z,74.48
2018-12-26T21:49:30.071Z,74.40
2018-12-26T21:51:58.527Z,74.65
2018-12-26T21:54:26.082Z,74.17
2018-12-26T21:56:53.735Z,73.82
2018-12-26T21:59:21.496Z,73.35
2018-12-26T22:01:50.026Z,73.03
2018-12-26T22:04:20.538Z,73.31
2018-12-26T22:06:48.135Z,73.17
2018-12-26T22:09:18.791Z,73.69
2018-12-26T22:11:46.502Z,73.72
2018-12-26T22:14:14.302Z,73.80
2018-12-26T22:16:41.946Z,73.99
2018-12-26T22:19:10.495Z,73.80
2018-12-26T22:21:38.408Z,73.75
2018-12-26T22:24:05.922Z,73.65
2018-12-26T22:26:34.302Z,73.32
2018-12-26T22:29:03.602Z,73.29
2018-12-26T22:31:33.234Z,73.45
2018-12-26T22:34:00.741Z,73.23
2018-12-26T22:36:28.446Z,73.21
2018-12-26T22:38:55.943Z,73.01
2018-12-26T22:41:23.708Z,73.04
2018-12-26T22:43:51.203Z,73.27
2018-12-26T22:46:21.672Z,73.03
2018-12-26T22:48:49.278Z,73.32
2018-12-26T22:51:17.965Z,73.80
2018-12-26T22:53:45.518Z,73.63
2018-12-26T22:56:13.207Z,73.63
2018-12-26T22:58:40.747Z,73.56
2018-12-26T23:01:08.735Z,73.48
2018-12-26T23:03:36.627Z,73.59
2018-12-26T23:06:04.336Z,73.22
2018-12-26T23:08:31.906Z,73.12
2018-12-26T23:10:59.404Z,73.21
2018-12-26T23:13:28.824Z,73.22
2018-12-26T23:15:56.963Z,73.20
2018-12-26T23:18:24.414Z,73.86
2018-12-26T23:20:52.017Z,74.20
2018-12-26T23:23:19.461Z,74.64
2018-12-26T23:25:47.166Z,74.74
2018-12-26T23:28:14.727Z,74.72
2018-12-26T23:30:42.236Z,74.57
2018-12-26T23:33:10.057Z,74.84
2018-12-26T23:35:39.411Z,74.75
2018-12-26T23:38:06.889Z,74.57
2018-12-26T23:40:34.478Z,74.70
2018-12-26T23:43:02.067Z,74.55
2018-12-26T23:45:30.411Z,74.33
2018-12-26T23:47:59.064Z,74.47
2018-12-26T23:50:28.131Z,74.32
2018-12-26T23:52:55.855Z,74.20
2018-12-26T23:55:23.388Z,74.29
2018-12-26T23:57:52.044Z,74.25
